createdAt,value
2023-05-21T00:00:37.313Z,6.60
2023-05-21T00:03:51.109Z,5.10
2023-05-21T00:06:30.311Z,5.90
2023-05-21T00:09:14.245Z,6.70
2023-05-21T00:11:52.515Z,5.70
2023-05-21T00:14:31.423Z,6.70
2023-05-21T00:17:07.609Z,6.80
2023-05-21T00:19:42.999Z,6.80
2023-05-21T00:22:14.629Z,6.30
2023-05-21T00:24:53.235Z,7.10
2023-05-21T00:27:32.548Z,8.00
2023-05-21T00:30:13.583Z,7.30
2023-05-21T00:32:52.860Z,7.10
2023-05-21T00:35:32.355Z,8.10
2023-05-21T00:38:13.090Z,6.40
2023-05-21T00:40:51.850Z,7.60
2023-05-21T00:43:31.080Z,7.60
2023-05-21T00:46:12.400Z,6.40
2023-05-21T00:51:33.097Z,6.80
2023-05-21T00:54:13.688Z,6.30
2023-05-21T00:56:52.779Z,7.60
2023-05-21T00:59:31.571Z,6.50
2023-05-21T01:02:09.915Z,7.00
2023-05-21T01:04:48.764Z,5.50
2023-05-21T01:07:26.733Z,5.90
2023-05-21T01:10:06.498Z,5.10
2023-05-21T01:12:50.788Z,5.30
2023-05-21T01:15:31.199Z,5.70
2023-05-21T01:20:50.757Z,8.10
2023-05-21T01:23:21.627Z,6.10
2023-05-21T01:26:01.549Z,6.40
2023-05-21T01:28:39.147Z,7.10
2023-05-21T01:31:29.217Z,9.50
2023-05-21T01:34:13.169Z,8.20
2023-05-21T01:37:02.972Z,6.80
2023-05-21T01:39:41.651Z,6.00
2023-05-21T01:42:17.200Z,10.30
2023-05-21T01:44:56.580Z,9.60
2023-05-21T01:47:37.782Z,9.60
2023-05-21T01:50:12.376Z,8.00
2023-05-21T01:53:03.526Z,7.40
2023-05-21T01:55:42.255Z,5.20
2023-05-21T01:58:17.481Z,8.90
2023-05-21T02:00:48.852Z,7.50
2023-05-21T02:03:32.839Z,6.30
2023-05-21T02:06:13.494Z,8.60
2023-05-21T02:08:48.679Z,7.30
2023-05-21T02:11:27.387Z,7.70
2023-05-21T02:14:04.097Z,6.90
2023-05-21T02:16:42.528Z,9.40
2023-05-21T02:19:15.358Z,7.00
2023-05-21T02:21:53.803Z,6.30
2023-05-21T02:24:33.478Z,6.50
2023-05-21T02:27:14.020Z,6.00
2023-05-21T02:29:52.114Z,8.80
2023-05-21T02:32:32.526Z,6.60
2023-05-21T02:35:14.298Z,8.40
2023-05-21T02:37:45.610Z,9.00
2023-05-21T02:40:17.570Z,6.80
2023-05-21T02:42:55.905Z,7.10
2023-05-21T02:45:33.839Z,7.20
2023-05-21T02:48:16.045Z,6.10
2023-05-21T02:50:54.794Z,11.80
2023-05-21T02:53:33.286Z,6.90
2023-05-21T02:56:13.369Z,7.30
2023-05-21T02:58:52.403Z,6.20
2023-05-21T03:01:31.146Z,7.40
2023-05-21T03:04:15.060Z,6.50
2023-05-21T03:06:55.228Z,6.00
2023-05-21T03:09:25.318Z,5.60
2023-05-21T03:12:03.798Z,7.90
2023-05-21T03:14:46.731Z,10.40
2023-05-21T03:17:17.335Z,7.00
2023-05-21T03:19:55.488Z,9.00
2023-05-21T03:22:31.830Z,6.30
2023-05-21T03:25:05.460Z,9.30
2023-05-21T03:27:39.479Z,8.00
2023-05-21T03:30:18.469Z,6.50
2023-05-21T03:32:53.955Z,7.30
2023-05-21T03:35:32.742Z,6.20
2023-05-21T03:38:14.040Z,7.60
2023-05-21T03:40:44.350Z,7.10
2023-05-21T03:43:15.451Z,7.50
2023-05-21T03:45:53.864Z,7.20
2023-05-21T03:48:24.238Z,7.90
2023-05-21T03:50:59.823Z,6.40
2023-05-21T03:53:38.281Z,9.00
2023-05-21T03:56:16.808Z,9.80
2023-05-21T03:58:55.151Z,5.50
2023-05-21T04:01:33.646Z,6.70
2023-05-21T04:04:13.753Z,5.70
2023-05-21T04:06:54.605Z,9.60
2023-05-21T04:12:10.449Z,9.10
2023-05-21T04:14:49.163Z,8.00
2023-05-21T04:17:28.862Z,8.00
2023-05-21T04:20:02.094Z,5.40
2023-05-21T04:22:40.156Z,5.60
2023-05-21T04:25:21.817Z,4.80
2023-05-21T04:28:00.360Z,4.90
2023-05-21T04:30:38.765Z,7.20
2023-05-21T04:33:20.553Z,5.80
2023-05-21T04:35:59.033Z,6.20
2023-05-21T04:38:42.193Z,5.10
2023-05-21T04:41:21.508Z,5.40
2023-05-21T04:43:59.770Z,7.00
2023-05-21T04:46:40.335Z,5.20
2023-05-21T04:49:23.399Z,4.20
2023-05-21T04:52:04.255Z,4.10
2023-05-21T04:57:22.136Z,5.40
2023-05-21T05:00:00.428Z,3.50
2023-05-21T05:02:39.053Z,4.30
2023-05-21T05:05:17.477Z,5.20
2023-05-21T05:07:57.557Z,5.70
2023-05-21T05:10:36.979Z,4.00
2023-05-21T05:13:07.731Z,4.50
2023-05-21T05:15:42.245Z,3.60
2023-05-21T05:18:21.078Z,4.60
2023-05-21T05:20:59.764Z,5.10
2023-05-21T05:23:30.083Z,4.80
2023-05-21T05:26:10.216Z,5.80
2023-05-21T05:28:48.336Z,4.50
2023-05-21T05:31:27.486Z,3.80
2023-05-21T05:34:06.870Z,2.60
2023-05-21T05:36:47.123Z,3.90
2023-05-21T05:39:25.565Z,4.20
2023-05-21T05:42:03.903Z,4.60
2023-05-21T05:44:34.077Z,4.20
2023-05-21T05:47:11.992Z,3.70
2023-05-21T05:49:43.524Z,4.50
2023-05-21T05:52:21.667Z,4.30
2023-05-21T05:54:59.459Z,4.10
2023-05-21T05:57:38.713Z,5.40
2023-05-21T06:00:17.986Z,3.50
2023-05-21T06:02:56.752Z,4.60
2023-05-21T06:05:37.487Z,4.50
2023-05-21T06:08:17.394Z,3.50
2023-05-21T06:10:56.541Z,3.40
2023-05-21T06:13:35.048Z,3.60
2023-05-21T06:16:05.929Z,3.60
2023-05-21T06:18:44.914Z,4.80
2023-05-21T06:21:19.431Z,4.40
2023-05-21T06:23:57.792Z,3.20
2023-05-21T06:26:29.690Z,2.50
2023-05-21T06:29:05.046Z,4.50
2023-05-21T06:31:43.895Z,3.50
2023-05-21T06:34:22.688Z,6.10
2023-05-21T06:37:00.983Z,4.30
2023-05-21T06:39:35.810Z,5.10
2023-05-21T06:42:14.854Z,5.90
2023-05-21T06:44:53.377Z,3.90
2023-05-21T06:47:33.015Z,5.60
2023-05-21T06:50:13.967Z,4.70
2023-05-21T06:52:52.583Z,5.70
2023-05-21T06:55:29.321Z,8.60
2023-05-21T06:58:09.587Z,4.20
2023-05-21T07:00:40.165Z,3.80
2023-05-21T07:03:19.062Z,4.10
2023-05-21T07:05:51.704Z,4.20
2023-05-21T07:08:26.678Z,4.60
2023-05-21T07:11:06.300Z,3.90
2023-05-21T07:13:45.790Z,3.20
2023-05-21T07:16:24.727Z,2.80
2023-05-21T07:18:55.775Z,2.80
2023-05-21T07:21:34.090Z,4.10
2023-05-21T07:24:13.950Z,2.50
2023-05-21T07:26:53.098Z,6.40
2023-05-21T07:29:31.908Z,4.50
2023-05-21T07:32:13.374Z,2.60
2023-05-21T07:34:54.303Z,2.80
2023-05-21T07:37:34.200Z,4.70
2023-05-21T07:40:14.654Z,3.20
2023-05-21T07:42:54.101Z,3.70
2023-05-21T07:45:33.611Z,2.50
2023-05-21T07:48:13.051Z,3.80
2023-05-21T07:50:53.068Z,4.10
2023-05-21T07:53:32.810Z,3.50
2023-05-21T07:56:13.660Z,3.40
2023-05-21T07:58:52.295Z,5.40
2023-05-21T08:01:31.744Z,2.60
2023-05-21T08:04:13.008Z,3.00
2023-05-21T08:06:52.264Z,3.40
2023-05-21T08:09:32.708Z,2.70
2023-05-21T08:12:18.436Z,3.40
2023-05-21T08:14:59.752Z,3.50
2023-05-21T08:17:43.031Z,3.60
2023-05-21T08:20:22.498Z,3.50
2023-05-21T08:23:03.260Z,2.90
2023-05-21T08:25:42.740Z,3.10
2023-05-21T08:28:27.005Z,2.90
2023-05-21T08:31:04.192Z,8.10
2023-05-21T08:33:50.110Z,2.80
2023-05-21T08:36:29.023Z,5.70
2023-05-21T08:39:08.967Z,3.00
2023-05-21T08:44:34.559Z,3.60
2023-05-21T08:47:16.595Z,3.10
2023-05-21T08:49:55.449Z,3.80
2023-05-21T08:52:30.811Z,3.10
2023-05-21T08:55:10.636Z,3.30
2023-05-21T08:57:50.954Z,3.70
2023-05-21T09:00:29.812Z,4.30
2023-05-21T09:03:02.368Z,5.90
2023-05-21T09:05:46.113Z,3.80
2023-05-21T09:08:36.996Z,4.90
2023-05-21T09:11:10.293Z,2.40
2023-05-21T09:13:49.631Z,2.70
2023-05-21T09:16:28.974Z,2.60
2023-05-21T09:18:59.940Z,3.40
2023-05-21T09:21:41.210Z,3.90
2023-05-21T09:24:19.201Z,3.30
2023-05-21T09:27:02.888Z,3.70
2023-05-21T09:29:43.926Z,4.00
2023-05-21T09:32:23.020Z,6.50
2023-05-21T09:35:07.200Z,2.80
2023-05-21T09:37:50.171Z,4.20
2023-05-21T09:40:29.687Z,6.60
2023-05-21T09:43:02.891Z,3.60
2023-05-21T09:45:38.878Z,4.20
2023-05-21T09:48:17.585Z,3.00
2023-05-21T09:50:56.609Z,3.90
2023-05-21T09:53:35.874Z,3.60
2023-05-21T09:56:16.015Z,4.40
2023-05-21T09:59:08.596Z,3.40
2023-05-21T10:01:48.718Z,3.60
2023-05-21T10:04:28.230Z,3.30
2023-05-21T10:07:07.652Z,2.90
2023-05-21T10:09:49.662Z,4.80
2023-05-21T10:12:28.585Z,3.00
2023-05-21T10:15:15.654Z,3.30
2023-05-21T10:17:53.291Z,4.30
2023-05-21T10:20:33.053Z,4.90
2023-05-21T10:23:13.434Z,3.90
2023-05-21T10:25:53.512Z,5.20
2023-05-21T10:28:32.806Z,4.20
2023-05-21T10:31:10.984Z,4.20
2023-05-21T10:33:50.449Z,3.10
2023-05-21T10:36:32.338Z,4.10
2023-05-21T10:39:13.826Z,4.90
2023-05-21T10:42:11.421Z,5.30
2023-05-21T10:45:12.583Z,4.40
2023-05-21T10:48:16.623Z,3.90
2023-05-21T10:51:24.997Z,4.30
2023-05-21T10:54:43.428Z,2.30
2023-05-21T10:57:35.375Z,2.50
2023-05-21T11:00:16.867Z,5.60
2023-05-21T11:02:56.694Z,3.90
2023-05-21T11:05:59.276Z,3.10
2023-05-21T11:08:40.767Z,3.10
2023-05-21T11:11:15.538Z,3.70
2023-05-21T11:13:54.112Z,3.60
2023-05-21T11:16:30.548Z,5.40
2023-05-21T11:19:18.794Z,3.30
2023-05-21T11:21:58.164Z,4.90
2023-05-21T11:24:39.958Z,4.30
2023-05-21T11:27:32.923Z,2.30
2023-05-21T11:30:21.708Z,2.90
2023-05-21T11:35:54.881Z,2.80
2023-05-21T11:38:34.815Z,3.60
2023-05-21T11:41:14.026Z,2.60
2023-05-21T11:44:02.828Z,4.00
2023-05-21T11:46:37.093Z,3.60
2023-05-21T11:49:16.415Z,4.00
2023-05-21T11:51:55.458Z,3.50
2023-05-21T11:54:40.293Z,3.60
2023-05-21T11:57:17.550Z,3.90
2023-05-21T11:59:55.137Z,3.70
2023-05-21T12:02:35.445Z,2.70
2023-05-21T12:05:10.219Z,3.10
2023-05-21T12:07:51.413Z,3.20
2023-05-21T12:10:31.151Z,3.50
2023-05-21T12:13:11.871Z,4.80
2023-05-21T12:15:51.014Z,3.90
2023-05-21T12:18:29.423Z,3.10
2023-05-21T12:21:05.384Z,3.50
2023-05-21T12:23:40.901Z,3.00
2023-05-21T12:26:19.017Z,3.40
2023-05-21T12:28:58.633Z,3.30
2023-05-21T12:31:49.653Z,3.70
2023-05-21T12:34:58.080Z,4.90
2023-05-21T12:37:34.219Z,3.50
2023-05-21T12:40:13.010Z,3.50
2023-05-21T12:42:52.129Z,2.60
2023-05-21T12:45:31.024Z,4.70
2023-05-21T12:48:09.687Z,4.40
2023-05-21T12:50:44.784Z,3.40
2023-05-21T12:53:17.197Z,2.70
2023-05-21T12:55:56.697Z,2.30
2023-05-21T12:58:34.184Z,3.20
2023-05-21T13:01:17.186Z,4.40
2023-05-21T13:03:55.240Z,4.00
2023-05-21T13:06:26.754Z,3.40
2023-05-21T13:09:05.875Z,3.40
2023-05-21T13:11:44.491Z,3.20
2023-05-21T13:14:15.050Z,3.00
2023-05-21T13:16:53.708Z,3.70
2023-05-21T13:19:27.563Z,2.60
2023-05-21T13:21:58.278Z,3.00
2023-05-21T13:24:36.072Z,3.70
2023-05-21T13:27:14.042Z,2.60
2023-05-21T13:29:52.194Z,4.70
2023-05-21T13:32:30.027Z,4.40
2023-05-21T13:35:10.228Z,3.00
2023-05-21T13:37:47.744Z,3.70
2023-05-21T13:40:18.509Z,3.30
2023-05-21T13:42:55.953Z,3.00
2023-05-21T13:45:34.597Z,2.30
2023-05-21T13:48:12.427Z,3.20
2023-05-21T13:50:42.941Z,2.90
2023-05-21T13:53:18.927Z,2.90
2023-05-21T13:55:57.886Z,3.10
2023-05-21T13:58:36.095Z,2.80
2023-05-21T14:01:13.448Z,3.00
2023-05-21T14:03:50.882Z,3.50
2023-05-21T14:06:30.156Z,2.50
2023-05-21T14:09:07.605Z,8.90
2023-05-21T14:11:45.919Z,2.90
2023-05-21T14:14:24.002Z,2.60
2023-05-21T14:17:02.383Z,3.10
2023-05-21T14:19:33.379Z,3.60
2023-05-21T14:22:11.656Z,4.00
2023-05-21T14:24:44.271Z,3.90
2023-05-21T14:27:20.100Z,3.90
2023-05-21T14:29:58.966Z,4.60
2023-05-21T14:32:33.163Z,2.30
2023-05-21T14:35:13.113Z,4.80
2023-05-21T14:37:43.372Z,3.70
2023-05-21T14:40:21.812Z,3.00
2023-05-21T14:42:56.444Z,6.00
2023-05-21T14:45:27.361Z,2.90
2023-05-21T14:48:00.834Z,2.00
2023-05-21T14:50:40.915Z,3.50
2023-05-21T14:53:19.758Z,2.30
2023-05-21T14:55:57.881Z,2.10
2023-05-21T14:58:36.212Z,2.30
2023-05-21T15:01:11.762Z,3.90
2023-05-21T15:03:50.219Z,3.20
2023-05-21T15:06:29.531Z,3.70
2023-05-21T15:09:07.953Z,2.40
2023-05-21T15:11:46.876Z,3.40
2023-05-21T15:14:25.090Z,3.20
2023-05-21T15:17:02.996Z,2.80
2023-05-21T15:19:41.564Z,3.40
2023-05-21T15:22:20.460Z,4.60
2023-05-21T15:24:58.725Z,2.90
2023-05-21T15:27:32.060Z,3.30
2023-05-21T15:30:02.348Z,3.90
2023-05-21T15:32:39.358Z,3.20
2023-05-21T15:35:18.100Z,2.90
2023-05-21T15:37:55.976Z,2.60
2023-05-21T15:40:34.148Z,4.70
2023-05-21T15:43:13.415Z,3.10
2023-05-21T15:45:49.135Z,4.50
2023-05-21T15:48:27.387Z,3.90
2023-05-21T15:50:58.559Z,4.00
2023-05-21T15:53:36.430Z,3.80
2023-05-21T15:56:13.637Z,3.10
2023-05-21T15:58:44.056Z,2.70
2023-05-21T16:01:22.110Z,4.30
2023-05-21T16:03:59.950Z,3.70
2023-05-21T16:06:33.877Z,2.50
2023-05-21T16:09:12.195Z,3.20
2023-05-21T16:11:50.102Z,3.20
2023-05-21T16:14:29.763Z,3.20
2023-05-21T16:17:09.287Z,3.80
2023-05-21T16:19:40.567Z,3.10
2023-05-21T16:22:20.609Z,3.10
2023-05-21T16:24:58.548Z,4.60
2023-05-21T16:27:36.941Z,3.50
2023-05-21T16:30:14.210Z,4.50
2023-05-21T16:32:44.644Z,3.40
2023-05-21T16:35:22.637Z,2.50
2023-05-21T16:38:01.302Z,4.90
2023-05-21T16:40:40.806Z,4.60
2023-05-21T16:43:18.829Z,5.00
2023-05-21T16:45:56.723Z,2.10
2023-05-21T16:48:35.519Z,4.90
2023-05-21T16:51:16.620Z,3.60
2023-05-21T16:53:54.682Z,3.10
2023-05-21T16:56:30.144Z,5.80
2023-05-21T16:59:09.624Z,7.30
2023-05-21T17:01:47.819Z,3.50
2023-05-21T17:04:26.433Z,3.30
2023-05-21T17:07:04.985Z,3.90
2023-05-21T17:09:43.794Z,3.30
2023-05-21T17:12:21.280Z,3.90
2023-05-21T17:14:59.826Z,3.10
2023-05-21T17:17:35.677Z,4.60
2023-05-21T17:20:07.462Z,4.50
2023-05-21T17:22:45.215Z,4.40
2023-05-21T17:25:25.439Z,2.40
2023-05-21T17:28:05.012Z,6.60
2023-05-21T17:30:43.660Z,2.90
2023-05-21T17:33:21.965Z,3.30
2023-05-21T17:36:01.580Z,2.50
2023-05-21T17:38:41.044Z,4.40
2023-05-21T17:41:19.350Z,3.50
2023-05-21T17:43:58.655Z,3.90
2023-05-21T17:46:37.251Z,4.60
2023-05-21T17:49:16.257Z,4.60
2023-05-21T17:51:54.288Z,4.10
2023-05-21T17:54:25.528Z,3.40
2023-05-21T17:57:02.952Z,3.80
2023-05-21T17:59:48.239Z,4.10
2023-05-21T18:02:26.236Z,4.00
2023-05-21T18:05:11.576Z,4.90
2023-05-21T18:07:50.999Z,5.00
2023-05-21T18:10:29.077Z,3.30
2023-05-21T18:13:06.468Z,3.60
2023-05-21T18:15:39.012Z,8.70
2023-05-21T18:18:21.503Z,4.70
2023-05-21T18:21:02.390Z,3.60
2023-05-21T18:23:41.061Z,5.30
2023-05-21T18:26:20.521Z,7.50
2023-05-21T18:31:28.513Z,3.80
2023-05-21T18:34:07.857Z,4.40
2023-05-21T18:36:47.045Z,3.30
2023-05-21T18:39:18.910Z,3.70
2023-05-21T18:44:39.469Z,4.40
2023-05-21T18:47:18.200Z,4.20
2023-05-21T18:49:58.303Z,5.70
2023-05-21T18:52:37.156Z,6.30
2023-05-21T18:55:16.015Z,3.70
2023-05-21T18:57:55.668Z,4.50
2023-05-21T19:00:34.945Z,4.30
2023-05-21T19:05:52.164Z,4.70
2023-05-21T19:08:31.099Z,5.10
2023-05-21T19:11:12.294Z,5.10
2023-05-21T19:13:44.898Z,4.50
2023-05-21T19:16:23.501Z,4.60
2023-05-21T19:19:04.759Z,5.10
2023-05-21T19:21:44.666Z,9.30
2023-05-21T19:24:24.020Z,4.30
2023-05-21T19:27:04.103Z,4.70
2023-05-21T19:29:43.679Z,5.50
2023-05-21T19:32:24.044Z,6.50
2023-05-21T19:35:05.294Z,4.70
2023-05-21T19:37:48.028Z,8.50
2023-05-21T19:40:28.143Z,4.90
2023-05-21T19:43:09.161Z,7.30
2023-05-21T19:45:48.583Z,7.90
2023-05-21T19:48:27.879Z,9.90
2023-05-21T19:51:08.436Z,8.10
2023-05-21T19:53:49.904Z,8.50
2023-05-21T19:56:31.416Z,12.40
2023-05-21T19:59:11.842Z,8.20
2023-05-21T20:01:50.493Z,12.10
2023-05-21T20:04:28.784Z,8.40
2023-05-21T20:07:07.826Z,9.70
2023-05-21T20:09:47.020Z,8.70
2023-05-21T20:12:21.702Z,6.50
2023-05-21T20:14:53.978Z,7.80
2023-05-21T20:17:31.064Z,6.20
2023-05-21T20:20:12.297Z,8.70
2023-05-21T20:22:51.365Z,7.50
2023-05-21T20:25:30.499Z,8.10
2023-05-21T20:28:10.403Z,9.90
2023-05-21T20:31:02.929Z,7.60
2023-05-21T20:33:39.361Z,13.20
2023-05-21T20:36:17.913Z,12.90
2023-05-21T20:38:51.774Z,9.90
2023-05-21T20:41:22.076Z,13.30
2023-05-21T20:44:00.421Z,18.90
2023-05-21T20:46:42.659Z,13.70
2023-05-21T20:49:26.151Z,14.30
2023-05-21T20:52:06.471Z,15.00
2023-05-21T20:54:46.856Z,18.40
2023-05-21T20:57:27.740Z,13.20
2023-05-21T21:00:06.432Z,17.20
2023-05-21T21:02:45.533Z,16.90
2023-05-21T21:05:24.678Z,22.10
2023-05-21T21:08:03.601Z,21.90
2023-05-21T21:10:47.179Z,15.80
2023-05-21T21:13:26.254Z,18.40
2023-05-21T21:16:05.416Z,23.00
2023-05-21T21:18:43.990Z,14.20
2023-05-21T21:21:23.731Z,23.70
2023-05-21T21:23:54.006Z,17.50
2023-05-21T21:26:32.768Z,14.60
2023-05-21T21:29:12.169Z,13.40
2023-05-21T21:31:51.488Z,13.80
2023-05-21T21:34:30.999Z,16.20
2023-05-21T21:37:10.078Z,18.10
2023-05-21T21:39:42.908Z,12.60
2023-05-21T21:42:14.266Z,7.80
2023-05-21T21:44:53.021Z,9.90
2023-05-21T21:47:29.663Z,10.40
2023-05-21T21:50:09.874Z,11.10
2023-05-21T21:52:49.198Z,12.70
2023-05-21T21:55:29.857Z,8.10
2023-05-21T21:58:10.539Z,7.60
2023-05-21T22:03:25.708Z,7.90
2023-05-21T22:06:03.024Z,7.10
2023-05-21T22:08:36.854Z,8.60
2023-05-21T22:11:15.660Z,8.30
2023-05-21T22:13:55.075Z,13.70
2023-05-21T22:16:34.327Z,11.00
2023-05-21T22:19:16.783Z,11.30
2023-05-21T22:21:55.568Z,7.70
2023-05-21T22:24:32.941Z,10.10
2023-05-21T22:27:13.263Z,8.70
2023-05-21T22:29:51.421Z,6.90
2023-05-21T22:32:34.450Z,8.80
2023-05-21T22:35:13.983Z,7.00
2023-05-21T22:37:52.590Z,6.30
2023-05-21T22:40:30.804Z,7.30
2023-05-21T22:43:04.789Z,7.60
2023-05-21T22:45:36.205Z,6.70
2023-05-21T22:48:14.597Z,9.00
2023-05-21T22:50:55.112Z,7.70
2023-05-21T22:53:33.356Z,7.30
2023-05-21T22:56:12.606Z,7.80
2023-05-21T22:58:50.556Z,7.90
2023-05-21T23:01:28.589Z,8.00
2023-05-21T23:04:06.950Z,6.10
2023-05-21T23:06:39.669Z,6.60
2023-05-21T23:09:17.604Z,6.40
2023-05-21T23:11:53.450Z,7.60
2023-05-21T23:14:31.374Z,7.00
2023-05-21T23:17:04.761Z,7.10
2023-05-21T23:19:36.519Z,6.80
2023-05-21T23:22:14.746Z,5.90
2023-05-21T23:24:54.271Z,7.60
2023-05-21T23:27:31.710Z,6.10
2023-05-21T23:30:12.105Z,7.50
2023-05-21T23:32:50.698Z,8.70
2023-05-21T23:35:29.075Z,14.30
2023-05-21T23:38:02.294Z,9.10
2023-05-21T23:40:40.986Z,22.70
2023-05-21T23:43:19.444Z,42.50
2023-05-21T23:45:57.729Z,44.60
2023-05-21T23:48:35.948Z,55.20
2023-05-21T23:51:16.468Z,51.10
2023-05-21T23:53:54.620Z,58.90
2023-05-21T23:56:32.865Z,62.30
2023-05-21T23:59:11.293Z,57.40
